sensor_id;sensor_type;location;lat;lon;timestamp;temperature;humidity
75838;SHT30;64480;52.040;113.502;2023-02-01T00:02:26;-16.39;58.35
75838;SHT30;64480;52.040;113.502;2023-02-01T00:06:00;-16.39;58.35
75838;SHT30;64480;52.040;113.502;2023-02-01T00:09:18;-16.41;58.38
75838;SHT30;64480;52.040;113.502;2023-02-01T00:12:37;-16.42;58.58
75838;SHT30;64480;52.040;113.502;2023-02-01T00:30:29;-16.28;58.65
75838;SHT30;64480;52.040;113.502;2023-02-01T00:34:07;-16.21;58.44
75838;SHT30;64480;52.040;113.502;2023-02-01T00:37:44;-16.21;57.96
75838;SHT30;64480;52.040;113.502;2023-02-01T00:46:09;-16.10;57.51
75838;SHT30;64480;52.040;113.502;2023-02-01T00:49:29;-16.06;57.68
75838;SHT30;64480;52.040;113.502;2023-02-01T00:52:48;-15.99;57.47
75838;SHT30;64480;52.040;113.502;2023-02-01T00:56:15;-15.90;57.60
75838;SHT30;64480;52.040;113.502;2023-02-01T00:59:33;-15.85;56.93
75838;SHT30;64480;52.040;113.502;2023-02-01T01:02:51;-15.81;56.53
75838;SHT30;64480;52.040;113.502;2023-02-01T01:06:16;-15.68;56.58
75838;SHT30;64480;52.040;113.502;2023-02-01T01:09:35;-15.62;56.32
75838;SHT30;64480;52.040;113.502;2023-02-01T01:12:54;-15.53;56.45
75838;SHT30;64480;52.040;113.502;2023-02-01T01:16:17;-15.47;56.06
75838;SHT30;64480;52.040;113.502;2023-02-01T01:19:37;-15.36;56.19
75838;SHT30;64480;52.040;113.502;2023-02-01T01:22:56;-15.33;55.14
75838;SHT30;64480;52.040;113.502;2023-02-01T01:26:19;-15.27;54.51
75838;SHT30;64480;52.040;113.502;2023-02-01T01:29:38;-15.15;54.67
75838;SHT30;64480;52.040;113.502;2023-02-01T01:33:01;-15.03;54.37
75838;SHT30;64480;52.040;113.502;2023-02-01T01:36:21;-15.07;53.83
75838;SHT30;64480;52.040;113.502;2023-02-01T01:39:53;-14.99;54.43
75838;SHT30;64480;52.040;113.502;2023-02-01T01:43:16;-14.85;53.97
75838;SHT30;64480;52.040;113.502;2023-02-01T01:47:06;-14.74;53.65
75838;SHT30;64480;52.040;113.502;2023-02-01T01:50:33;-14.75;53.01
75838;SHT30;64480;52.040;113.502;2023-02-01T01:54:17;-14.68;53.45
75838;SHT30;64480;52.040;113.502;2023-02-01T01:57:53;-14.67;52.74
75838;SHT30;64480;52.040;113.502;2023-02-01T02:02:01;-14.79;52.52
75838;SHT30;64480;52.040;113.502;2023-02-01T02:05:41;-15.03;53.09
75838;SHT30;64480;52.040;113.502;2023-02-01T02:09:22;-15.03;53.54
75838;SHT30;64480;52.040;113.502;2023-02-01T02:12:42;-14.99;53.65
75838;SHT30;64480;52.040;113.502;2023-02-01T02:54:14;-13.87;52.22
75838;SHT30;64480;52.040;113.502;2023-02-01T02:57:54;-13.57;51.40
75838;SHT30;64480;52.040;113.502;2023-02-01T03:01:35;-13.38;51.07
75838;SHT30;64480;52.040;113.502;2023-02-01T03:05:00;-13.15;50.38
75838;SHT30;64480;52.040;113.502;2023-02-01T03:08:29;-13.01;50.24
75838;SHT30;64480;52.040;113.502;2023-02-01T03:12:12;-12.85;49.63
75838;SHT30;64480;52.040;113.502;2023-02-01T03:23:26;-12.35;48.92
75838;SHT30;64480;52.040;113.502;2023-02-01T03:28:09;-12.29;47.69
75838;SHT30;64480;52.040;113.502;2023-02-01T03:31:19;-12.21;48.27
75838;SHT30;64480;52.040;113.502;2023-02-01T03:34:37;-12.10;47.59
75838;SHT30;64480;52.040;113.502;2023-02-01T03:41:55;-11.69;46.93
75838;SHT30;64480;52.040;113.502;2023-02-01T03:45:28;-11.63;45.65
75838;SHT30;64480;52.040;113.502;2023-02-01T03:59:23;-11.39;45.89
75838;SHT30;64480;52.040;113.502;2023-02-01T04:02:46;-11.44;45.42
75838;SHT30;64480;52.040;113.502;2023-02-01T04:06:02;-11.30;46.29
75838;SHT30;64480;52.040;113.502;2023-02-01T04:13:07;-11.10;44.89
75838;SHT30;64480;52.040;113.502;2023-02-01T04:16:39;-11.11;45.67
75838;SHT30;64480;52.040;113.502;2023-02-01T04:20:23;-10.95;45.79
75838;SHT30;64480;52.040;113.502;2023-02-01T04:23:41;-10.87;44.83
75838;SHT30;64480;52.040;113.502;2023-02-01T04:27:07;-10.84;44.15
75838;SHT30;64480;52.040;113.502;2023-02-01T04:30:27;-10.75;45.26
75838;SHT30;64480;52.040;113.502;2023-02-01T04:33:55;-10.69;44.69
75838;SHT30;64480;52.040;113.502;2023-02-01T04:37:16;-10.65;45.01
75838;SHT30;64480;52.040;113.502;2023-02-01T04:41:05;-10.62;44.81
75838;SHT30;64480;52.040;113.502;2023-02-01T04:44:27;-10.45;44.72
75838;SHT30;64480;52.040;113.502;2023-02-01T04:47:46;-10.45;43.85
75838;SHT30;64480;52.040;113.502;2023-02-01T04:51:40;-10.34;44.59
75838;SHT30;64480;52.040;113.502;2023-02-01T04:55:11;-10.10;44.89
75838;SHT30;64480;52.040;113.502;2023-02-01T05:10:54;-9.85;43.54
75838;SHT30;64480;52.040;113.502;2023-02-01T05:15:03;-9.83;43.11
75838;SHT30;64480;52.040;113.502;2023-02-01T05:41:38;-9.47;42.40
75838;SHT30;64480;52.040;113.502;2023-02-01T05:45:18;-9.37;42.01
75838;SHT30;64480;52.040;113.502;2023-02-01T05:59:36;-9.55;39.85
75838;SHT30;64480;52.040;113.502;2023-02-01T06:02:59;-9.55;39.65
75838;SHT30;64480;52.040;113.502;2023-02-01T06:06:20;-9.48;38.95
75838;SHT30;64480;52.040;113.502;2023-02-01T06:09:40;-9.45;39.75
75838;SHT30;64480;52.040;113.502;2023-02-01T06:13:03;-9.31;39.57
75838;SHT30;64480;52.040;113.502;2023-02-01T06:16:44;-9.34;39.04
75838;SHT30;64480;52.040;113.502;2023-02-01T06:25:33;-9.20;38.11
75838;SHT30;64480;52.040;113.502;2023-02-01T06:29:00;-9.12;38.99
75838;SHT30;64480;52.040;113.502;2023-02-01T06:32:18;-9.03;38.34
75838;SHT30;64480;52.040;113.502;2023-02-01T06:36:19;-8.91;38.49
75838;SHT30;64480;52.040;113.502;2023-02-01T06:40:27;-8.34;37.24
75838;SHT30;64480;52.040;113.502;2023-02-01T06:44:38;-8.10;35.72
75838;SHT30;64480;52.040;113.502;2023-02-01T06:47:59;-8.19;36.04
75838;SHT30;64480;52.040;113.502;2023-02-01T06:51:55;-8.23;37.03
75838;SHT30;64480;52.040;113.502;2023-02-01T06:56:06;-8.27;36.55
75838;SHT30;64480;52.040;113.502;2023-02-01T07:00:16;-8.42;35.97
75838;SHT30;64480;52.040;113.502;2023-02-01T07:04:11;-8.57;36.27
75838;SHT30;64480;52.040;113.502;2023-02-01T07:07:50;-8.61;36.83
75838;SHT30;64480;52.040;113.502;2023-02-01T07:11:18;-8.59;37.03
75838;SHT30;64480;52.040;113.502;2023-02-01T07:14:40;-8.47;37.60
75838;SHT30;64480;52.040;113.502;2023-02-01T07:18:13;-8.41;36.80
75838;SHT30;64480;52.040;113.502;2023-02-01T07:29:03;-8.26;35.96
75838;SHT30;64480;52.040;113.502;2023-02-01T07:32:26;-8.31;35.02
75838;SHT30;64480;52.040;113.502;2023-02-01T07:36:24;-8.34;35.04
75838;SHT30;64480;52.040;113.502;2023-02-01T07:40:26;-8.33;34.87
75838;SHT30;64480;52.040;113.502;2023-02-01T07:43:52;-8.40;34.17
75838;SHT30;64480;52.040;113.502;2023-02-01T07:47:09;-8.47;34.19
75838;SHT30;64480;52.040;113.502;2023-02-01T07:50:30;-8.55;34.05
75838;SHT30;64480;52.040;113.502;2023-02-01T07:53:40;-8.55;34.36
75838;SHT30;64480;52.040;113.502;2023-02-01T07:56:58;-8.55;34.59
75838;SHT30;64480;52.040;113.502;2023-02-01T08:00:33;-8.71;35.16
75838;SHT30;64480;52.040;113.502;2023-02-01T08:04:15;-8.82;35.07
75838;SHT30;64480;52.040;113.502;2023-02-01T08:07:38;-8.41;34.63
75838;SHT30;64480;52.040;113.502;2023-02-01T08:11:05;-8.29;33.86
75838;SHT30;64480;52.040;113.502;2023-02-01T08:14:27;-8.14;34.08
75838;SHT30;64480;52.040;113.502;2023-02-01T08:18:29;-8.33;33.78
75838;SHT30;64480;52.040;113.502;2023-02-01T08:21:51;-8.33;34.00
75838;SHT30;64480;52.040;113.502;2023-02-01T08:25:42;-8.61;33.66
75838;SHT30;64480;52.040;113.502;2023-02-01T08:29:20;-8.82;34.86
75838;SHT30;64480;52.040;113.502;2023-02-01T08:36:52;-9.02;34.43
75838;SHT30;64480;52.040;113.502;2023-02-01T08:40:32;-9.16;35.28
75838;SHT30;64480;52.040;113.502;2023-02-01T08:44:17;-9.24;35.99
75838;SHT30;64480;52.040;113.502;2023-02-01T08:47:41;-9.35;36.00
75838;SHT30;64480;52.040;113.502;2023-02-01T08:51:33;-9.48;36.24
75838;SHT30;64480;52.040;113.502;2023-02-01T08:54:52;-9.55;37.26
75838;SHT30;64480;52.040;113.502;2023-02-01T08:58:18;-9.66;36.65
75838;SHT30;64480;52.040;113.502;2023-02-01T09:01:43;-9.71;36.84
75838;SHT30;64480;52.040;113.502;2023-02-01T09:05:32;-9.78;37.49
75838;SHT30;64480;52.040;113.502;2023-02-01T09:09:14;-9.86;36.98
75838;SHT30;64480;52.040;113.502;2023-02-01T09:12:49;-9.93;38.17
75838;SHT30;64480;52.040;113.502;2023-02-01T09:23:45;-10.14;40.45
75838;SHT30;64480;52.040;113.502;2023-02-01T09:27:06;-10.20;39.85
75838;SHT30;64480;52.040;113.502;2023-02-01T09:37:58;-10.40;40.60
75838;SHT30;64480;52.040;113.502;2023-02-01T09:50:28;-10.58;43.26
75838;SHT30;64480;52.040;113.502;2023-02-01T09:53:39;-10.63;42.29
75838;SHT30;64480;52.040;113.502;2023-02-01T09:57:15;-10.71;42.98
75838;SHT30;64480;52.040;113.502;2023-02-01T10:00:57;-10.76;44.46
75838;SHT30;64480;52.040;113.502;2023-02-01T10:04:19;-10.80;45.24
75838;SHT30;64480;52.040;113.502;2023-02-01T10:08:13;-10.83;45.15
75838;SHT30;64480;52.040;113.502;2023-02-01T10:11:46;-10.86;45.28
75838;SHT30;64480;52.040;113.502;2023-02-01T10:15:24;-10.95;46.95
75838;SHT30;64480;52.040;113.502;2023-02-01T10:33:36;-12.06;46.93
75838;SHT30;64480;52.040;113.502;2023-02-01T10:37:16;-12.39;47.54
75838;SHT30;64480;52.040;113.502;2023-02-01T10:41:21;-12.52;47.34
75838;SHT30;64480;52.040;113.502;2023-02-01T10:44:42;-12.60;47.16
75838;SHT30;64480;52.040;113.502;2023-02-01T10:48:11;-12.65;47.00
75838;SHT30;64480;52.040;113.502;2023-02-01T10:59:38;-12.67;48.15
75838;SHT30;64480;52.040;113.502;2023-02-01T11:06:39;-12.90;48.89
75838;SHT30;64480;52.040;113.502;2023-02-01T11:10:03;-13.01;49.12
75838;SHT30;64480;52.040;113.502;2023-02-01T11:24:23;-13.21;50.41
75838;SHT30;64480;52.040;113.502;2023-02-01T11:27:56;-13.33;50.67
75838;SHT30;64480;52.040;113.502;2023-02-01T11:31:17;-13.49;51.24
75838;SHT30;64480;52.040;113.502;2023-02-01T11:38:46;-13.54;52.35
75838;SHT30;64480;52.040;113.502;2023-02-01T11:42:20;-13.57;52.32
75838;SHT30;64480;52.040;113.502;2023-02-01T11:46:01;-13.71;51.96
75838;SHT30;64480;52.040;113.502;2023-02-01T11:53:19;-13.82;52.85
75838;SHT30;64480;52.040;113.502;2023-02-01T12:28:40;-14.37;52.76
75838;SHT30;64480;52.040;113.502;2023-02-01T12:32:45;-14.53;52.52
75838;SHT30;64480;52.040;113.502;2023-02-01T12:43:33;-14.87;53.07
75838;SHT30;64480;52.040;113.502;2023-02-01T12:46:59;-15.05;53.20
75838;SHT30;64480;52.040;113.502;2023-02-01T12:50:42;-15.15;53.57
75838;SHT30;64480;52.040;113.502;2023-02-01T12:54:22;-14.99;54.37
75838;SHT30;64480;52.040;113.502;2023-02-01T12:57:46;-14.96;54.40
75838;SHT30;64480;52.040;113.502;2023-02-01T13:01:37;-14.99;54.67
75838;SHT30;64480;52.040;113.502;2023-02-01T13:05:11;-15.07;54.45
75838;SHT30;64480;52.040;113.502;2023-02-01T13:08:41;-15.16;54.97
75838;SHT30;64480;52.040;113.502;2023-02-01T13:12:08;-15.23;54.96
75838;SHT30;64480;52.040;113.502;2023-02-01T13:15:43;-15.24;55.35
75838;SHT30;64480;52.040;113.502;2023-02-01T13:19:23;-15.28;57.37
75838;SHT30;64480;52.040;113.502;2023-02-01T13:22:50;-15.30;56.82
75838;SHT30;64480;52.040;113.502;2023-02-01T13:26:01;-15.26;56.42
75838;SHT30;64480;52.040;113.502;2023-02-01T13:29:20;-15.19;55.58
75838;SHT30;64480;52.040;113.502;2023-02-01T13:36:42;-15.27;54.64
75838;SHT30;64480;52.040;113.502;2023-02-01T13:43:48;-15.78;56.28
75838;SHT30;64480;52.040;113.502;2023-02-01T13:47:39;-15.83;56.88
75838;SHT30;64480;52.040;113.502;2023-02-01T13:50:59;-15.79;56.53
75838;SHT30;64480;52.040;113.502;2023-02-01T13:57:45;-15.90;56.06
75838;SHT30;64480;52.040;113.502;2023-02-01T14:04:48;-15.90;55.30
75838;SHT30;64480;52.040;113.502;2023-02-01T14:08:12;-16.01;54.34
75838;SHT30;64480;52.040;113.502;2023-02-01T14:11:38;-16.11;54.37
75838;SHT30;64480;52.040;113.502;2023-02-01T14:15:19;-16.25;54.47
75838;SHT30;64480;52.040;113.502;2023-02-01T14:22:33;-16.46;55.01
75838;SHT30;64480;52.040;113.502;2023-02-01T14:26:02;-16.49;55.26
75838;SHT30;64480;52.040;113.502;2023-02-01T14:29:30;-16.66;55.50
75838;SHT30;64480;52.040;113.502;2023-02-01T14:33:20;-16.67;55.55
75838;SHT30;64480;52.040;113.502;2023-02-01T14:36:45;-16.73;55.65
75838;SHT30;64480;52.040;113.502;2023-02-01T14:40:15;-16.92;55.82
75838;SHT30;64480;52.040;113.502;2023-02-01T14:44:22;-16.97;56.84
75838;SHT30;64480;52.040;113.502;2023-02-01T14:47:39;-17.04;57.51
75838;SHT30;64480;52.040;113.502;2023-02-01T14:50:52;-16.93;57.69
75838;SHT30;64480;52.040;113.502;2023-02-01T14:54:18;-17.07;57.26
75838;SHT30;64480;52.040;113.502;2023-02-01T14:57:46;-16.99;57.31
75838;SHT30;64480;52.040;113.502;2023-02-01T15:01:05;-17.06;56.93
75838;SHT30;64480;52.040;113.502;2023-02-01T15:04:16;-17.18;57.10
75838;SHT30;64480;52.040;113.502;2023-02-01T15:07:46;-17.21;57.77
75838;SHT30;64480;52.040;113.502;2023-02-01T15:11:14;-17.15;57.55
75838;SHT30;64480;52.040;113.502;2023-02-01T15:15:19;-17.14;57.74
75838;SHT30;64480;52.040;113.502;2023-02-01T15:18:26;-17.00;57.67
75838;SHT30;64480;52.040;113.502;2023-02-01T15:21:47;-17.08;57.76
75838;SHT30;64480;52.040;113.502;2023-02-01T15:24:58;-16.94;58.24
75838;SHT30;64480;52.040;113.502;2023-02-01T15:28:26;-16.79;58.08
75838;SHT30;64480;52.040;113.502;2023-02-01T15:34:56;-17.13;58.50
75838;SHT30;64480;52.040;113.502;2023-02-01T15:41:31;-17.28;58.27
75838;SHT30;64480;52.040;113.502;2023-02-01T15:44:40;-17.18;58.90
75838;SHT30;64480;52.040;113.502;2023-02-01T15:47:47;-17.10;58.24
75838;SHT30;64480;52.040;113.502;2023-02-01T15:50:53;-17.10;57.68
75838;SHT30;64480;52.040;113.502;2023-02-01T15:54:13;-17.20;56.96
75838;SHT30;64480;52.040;113.502;2023-02-01T15:57:33;-17.25;56.84
75838;SHT30;64480;52.040;113.502;2023-02-01T16:04:26;-17.31;56.70
75838;SHT30;64480;52.040;113.502;2023-02-01T16:07:37;-17.28;56.64
75838;SHT30;64480;52.040;113.502;2023-02-01T16:10:48;-17.43;56.41
75838;SHT30;64480;52.040;113.502;2023-02-01T16:14:01;-17.58;56.38
75838;SHT30;64480;52.040;113.502;2023-02-01T16:17:05;-17.63;56.61
75838;SHT30;64480;52.040;113.502;2023-02-01T16:20:18;-17.74;56.53
75838;SHT30;64480;52.040;113.502;2023-02-01T16:23:29;-17.80;56.58
75838;SHT30;64480;52.040;113.502;2023-02-01T16:26:50;-17.91;56.77
75838;SHT30;64480;52.040;113.502;2023-02-01T16:30:08;-17.94;56.75
75838;SHT30;64480;52.040;113.502;2023-02-01T16:33:20;-17.94;56.80
75838;SHT30;64480;52.040;113.502;2023-02-01T16:36:40;-17.88;56.57
75838;SHT30;64480;52.040;113.502;2023-02-01T16:39:47;-18.12;56.54
75838;SHT30;64480;52.040;113.502;2023-02-01T16:43:12;-18.08;58.58
75838;SHT30;64480;52.040;113.502;2023-02-01T16:46:19;-18.05;58.15
75838;SHT30;64480;52.040;113.502;2023-02-01T16:49:40;-18.07;58.40
75838;SHT30;64480;52.040;113.502;2023-02-01T16:52:45;-18.16;57.80
75838;SHT30;64480;52.040;113.502;2023-02-01T16:56:01;-18.15;57.45
75838;SHT30;64480;52.040;113.502;2023-02-01T16:59:12;-18.25;57.14
75838;SHT30;64480;52.040;113.502;2023-02-01T17:02:29;-18.39;57.23
75838;SHT30;64480;52.040;113.502;2023-02-01T17:05:35;-18.53;57.73
75838;SHT30;64480;52.040;113.502;2023-02-01T17:08:57;-18.61;58.52
75838;SHT30;64480;52.040;113.502;2023-02-01T17:12:24;-18.46;59.41
75838;SHT30;64480;52.040;113.502;2023-02-01T17:15:34;-18.44;58.24
75838;SHT30;64480;52.040;113.502;2023-02-01T17:18:40;-18.56;57.07
75838;SHT30;64480;52.040;113.502;2023-02-01T17:21:47;-18.77;56.02
75838;SHT30;64480;52.040;113.502;2023-02-01T17:25:15;-19.00;55.70
75838;SHT30;64480;52.040;113.502;2023-02-01T17:28:33;-19.12;56.00
75838;SHT30;64480;52.040;113.502;2023-02-01T17:31:43;-19.18;56.04
75838;SHT30;64480;52.040;113.502;2023-02-01T17:34:48;-19.23;56.06
75838;SHT30;64480;52.040;113.502;2023-02-01T17:37:57;-19.29;56.05
75838;SHT30;64480;52.040;113.502;2023-02-01T17:41:01;-19.33;55.99
75838;SHT30;64480;52.040;113.502;2023-02-01T17:44:18;-19.37;56.04
75838;SHT30;64480;52.040;113.502;2023-02-01T17:47:24;-19.43;55.81
75838;SHT30;64480;52.040;113.502;2023-02-01T17:50:35;-19.43;55.49
75838;SHT30;64480;52.040;113.502;2023-02-01T17:53:41;-19.51;55.23
75838;SHT30;64480;52.040;113.502;2023-02-01T17:57:01;-19.51;55.31
75838;SHT30;64480;52.040;113.502;2023-02-01T18:00:20;-19.44;54.83
75838;SHT30;64480;52.040;113.502;2023-02-01T18:03:30;-19.40;54.76
75838;SHT30;64480;52.040;113.502;2023-02-01T18:06:52;-19.46;54.07
75838;SHT30;64480;52.040;113.502;2023-02-01T18:09:58;-19.47;54.23
75838;SHT30;64480;52.040;113.502;2023-02-01T18:13:18;-19.46;54.34
75838;SHT30;64480;52.040;113.502;2023-02-01T18:16:36;-19.40;54.50
75838;SHT30;64480;52.040;113.502;2023-02-01T18:19:55;-19.31;54.65
75838;SHT30;64480;52.040;113.502;2023-02-01T18:23:18;-19.33;54.71
75838;SHT30;64480;52.040;113.502;2023-02-01T18:26:27;-19.38;55.50
75838;SHT30;64480;52.040;113.502;2023-02-01T18:29:34;-19.55;55.54
75838;SHT30;64480;52.040;113.502;2023-02-01T18:32:51;-19.60;57.36
75838;SHT30;64480;52.040;113.502;2023-02-01T18:36:01;-19.58;58.20
75838;SHT30;64480;52.040;113.502;2023-02-01T18:39:11;-19.51;57.45
75838;SHT30;64480;52.040;113.502;2023-02-01T18:42:15;-19.55;57.49
75838;SHT30;64480;52.040;113.502;2023-02-01T18:45:37;-19.51;57.64
75838;SHT30;64480;52.040;113.502;2023-02-01T18:48:49;-19.38;57.42
75838;SHT30;64480;52.040;113.502;2023-02-01T18:52:00;-19.44;56.46
75838;SHT30;64480;52.040;113.502;2023-02-01T18:55:10;-19.46;56.91
75838;SHT30;64480;52.040;113.502;2023-02-01T18:58:28;-19.38;57.16
75838;SHT30;64480;52.040;113.502;2023-02-01T19:01:39;-19.44;57.13
75838;SHT30;64480;52.040;113.502;2023-02-01T19:04:47;-19.58;57.75
75838;SHT30;64480;52.040;113.502;2023-02-01T19:08:04;-19.64;58.88
75838;SHT30;64480;52.040;113.502;2023-02-01T19:11:24;-19.63;59.01
75838;SHT30;64480;52.040;113.502;2023-02-01T19:14:33;-19.64;59.14
75838;SHT30;64480;52.040;113.502;2023-02-01T19:17:52;-19.53;59.13
75838;SHT30;64480;52.040;113.502;2023-02-01T19:21:05;-19.83;58.06
75838;SHT30;64480;52.040;113.502;2023-02-01T19:24:23;-19.98;59.38
75838;SHT30;64480;52.040;113.502;2023-02-01T19:27:43;-19.96;58.78
75838;SHT30;64480;52.040;113.502;2023-02-01T19:31:02;-19.95;58.00
75838;SHT30;64480;52.040;113.502;2023-02-01T19:34:10;-19.98;57.96
75838;SHT30;64480;52.040;113.502;2023-02-01T19:37:16;-20.03;57.40
75838;SHT30;64480;52.040;113.502;2023-02-01T19:40:30;-20.02;57.82
75838;SHT30;64480;52.040;113.502;2023-02-01T19:43:47;-19.85;58.06
75838;SHT30;64480;52.040;113.502;2023-02-01T19:47:03;-20.01;56.64
75838;SHT30;64480;52.040;113.502;2023-02-01T19:50:21;-19.96;57.09
75838;SHT30;64480;52.040;113.502;2023-02-01T19:53:37;-19.92;56.53
75838;SHT30;64480;52.040;113.502;2023-02-01T19:56:56;-20.02;56.35
75838;SHT30;64480;52.040;113.502;2023-02-01T20:00:13;-19.95;56.31
75838;SHT30;64480;52.040;113.502;2023-02-01T20:03:28;-19.93;57.23
75838;SHT30;64480;52.040;113.502;2023-02-01T20:06:38;-19.92;56.62
75838;SHT30;64480;52.040;113.502;2023-02-01T20:09:46;-19.78;56.58
75838;SHT30;64480;52.040;113.502;2023-02-01T20:12:55;-19.92;55.76
75838;SHT30;64480;52.040;113.502;2023-02-01T20:16:11;-20.03;55.76
75838;SHT30;64480;52.040;113.502;2023-02-01T20:19:18;-19.99;56.42
75838;SHT30;64480;52.040;113.502;2023-02-01T20:22:34;-20.13;55.92
75838;SHT30;64480;52.040;113.502;2023-02-01T20:25:51;-20.24;56.60
75838;SHT30;64480;52.040;113.502;2023-02-01T20:28:55;-20.24;56.81
75838;SHT30;64480;52.040;113.502;2023-02-01T20:32:16;-20.26;56.97
75838;SHT30;64480;52.040;113.502;2023-02-01T20:35:37;-20.31;56.90
75838;SHT30;64480;52.040;113.502;2023-02-01T20:38:45;-20.42;56.67
75838;SHT30;64480;52.040;113.502;2023-02-01T20:42:01;-20.48;57.41
75838;SHT30;64480;52.040;113.502;2023-02-01T20:45:11;-20.41;57.48
75838;SHT30;64480;52.040;113.502;2023-02-01T20:48:15;-20.51;57.16
75838;SHT30;64480;52.040;113.502;2023-02-01T20:51:33;-20.54;57.65
75838;SHT30;64480;52.040;113.502;2023-02-01T20:54:49;-20.37;57.79
75838;SHT30;64480;52.040;113.502;2023-02-01T20:57:56;-20.33;57.28
75838;SHT30;64480;52.040;113.502;2023-02-01T21:01:13;-20.44;57.16
75838;SHT30;64480;52.040;113.502;2023-02-01T21:04:39;-20.45;55.31
75838;SHT30;64480;52.040;113.502;2023-02-01T21:07:59;-20.45;54.04
75838;SHT30;64480;52.040;113.502;2023-02-01T21:11:17;-20.51;53.79
75838;SHT30;64480;52.040;113.502;2023-02-01T21:14:35;-20.54;53.96
75838;SHT30;64480;52.040;113.502;2023-02-01T21:17:52;-20.58;53.84
75838;SHT30;64480;52.040;113.502;2023-02-01T21:21:06;-20.59;54.17
75838;SHT30;64480;52.040;113.502;2023-02-01T21:24:10;-20.66;53.96
75838;SHT30;64480;52.040;113.502;2023-02-01T21:27:19;-20.79;53.99
75838;SHT30;64480;52.040;113.502;2023-02-01T21:30:38;-20.85;54.26
75838;SHT30;64480;52.040;113.502;2023-02-01T21:33:55;-20.93;54.65
75838;SHT30;64480;52.040;113.502;2023-02-01T21:37:02;-20.96;55.47
75838;SHT30;64480;52.040;113.502;2023-02-01T21:40:19;-20.93;55.96
75838;SHT30;64480;52.040;113.502;2023-02-01T21:43:38;-20.99;55.28
75838;SHT30;64480;52.040;113.502;2023-02-01T21:46:55;-20.97;54.85
75838;SHT30;64480;52.040;113.502;2023-02-01T21:50:18;-21.03;54.76
75838;SHT30;64480;52.040;113.502;2023-02-01T21:53:36;-20.95;54.82
75838;SHT30;64480;52.040;113.502;2023-02-01T21:56:46;-20.95;54.66
75838;SHT30;64480;52.040;113.502;2023-02-01T22:00:05;-20.97;54.07
75838;SHT30;64480;52.040;113.502;2023-02-01T22:03:24;-21.02;53.68
75838;SHT30;64480;52.040;113.502;2023-02-01T22:06:44;-21.11;53.27
75838;SHT30;64480;52.040;113.502;2023-02-01T22:10:04;-21.03;53.45
75838;SHT30;64480;52.040;113.502;2023-02-01T22:13:22;-20.95;53.58
75838;SHT30;64480;52.040;113.502;2023-02-01T22:16:28;-20.95;53.05
75838;SHT30;64480;52.040;113.502;2023-02-01T22:19:46;-21.04;53.35
75838;SHT30;64480;52.040;113.502;2023-02-01T22:23:05;-21.08;53.59
75838;SHT30;64480;52.040;113.502;2023-02-01T22:26:27;-21.07;53.79
75838;SHT30;64480;52.040;113.502;2023-02-01T22:29:34;-20.96;53.78
75838;SHT30;64480;52.040;113.502;2023-02-01T22:32:45;-21.00;53.28
75838;SHT30;64480;52.040;113.502;2023-02-01T22:36:41;-21.07;52.97
75838;SHT30;64480;52.040;113.502;2023-02-01T22:39:59;-21.14;53.06
75838;SHT30;64480;52.040;113.502;2023-02-01T22:43:18;-21.10;53.26
75838;SHT30;64480;52.040;113.502;2023-02-01T22:46:44;-21.28;53.41
75838;SHT30;64480;52.040;113.502;2023-02-01T22:50:05;-21.28;54.14
75838;SHT30;64480;52.040;113.502;2023-02-01T22:53:28;-21.10;54.52
75838;SHT30;64480;52.040;113.502;2023-02-01T22:56:48;-21.06;54.40
75838;SHT30;64480;52.040;113.502;2023-02-01T23:00:06;-21.07;54.01
75838;SHT30;64480;52.040;113.502;2023-02-01T23:07:05;-20.96;54.41
75838;SHT30;64480;52.040;113.502;2023-02-01T23:21:30;-20.64;53.82
75838;SHT30;64480;52.040;113.502;2023-02-01T23:24:52;-20.61;53.41
75838;SHT30;64480;52.040;113.502;2023-02-01T23:28:14;-20.68;53.90
75838;SHT30;64480;52.040;113.502;2023-02-01T23:36:01;-20.69;55.78
75838;SHT30;64480;52.040;113.502;2023-02-01T23:39:51;-20.62;55.57
75838;SHT30;64480;52.040;113.502;2023-02-01T23:43:11;-20.80;55.39
75838;SHT30;64480;52.040;113.502;2023-02-01T23:46:47;-20.75;56.49
75838;SHT30;64480;52.040;113.502;2023-02-01T23:50:04;-20.73;55.60
75838;SHT30;64480;52.040;113.502;2023-02-01T23:53:43;-20.51;55.87
75838;SHT30;64480;52.040;113.502;2023-02-01T23:57:02;-20.57;54.69
